createdAt,value
2022-08-30T00:00:13.067Z,90.61
2022-08-30T00:01:14.285Z,90.20
2022-08-30T00:02:13.052Z,90.11
2022-08-30T00:03:13.284Z,90.00
2022-08-30T00:04:13.154Z,90.00
2022-08-30T00:05:12.985Z,90.00
2022-08-30T00:06:12.991Z,90.00
2022-08-30T00:07:12.956Z,90.11
2022-08-30T00:08:12.954Z,90.11
2022-08-30T00:09:12.935Z,90.11
2022-08-30T00:10:12.950Z,90.20
2022-08-30T00:11:12.919Z,90.41
2022-08-30T00:12:12.897Z,90.55
2022-08-30T00:13:13.002Z,90.66
2022-08-30T00:14:12.888Z,90.75
2022-08-30T00:15:15.860Z,90.86
2022-08-30T00:16:15.931Z,90.96
2022-08-30T00:17:12.829Z,90.96
2022-08-30T00:18:12.821Z,91.06
2022-08-30T00:19:12.868Z,91.06
2022-08-30T00:20:12.837Z,91.16
2022-08-30T00:21:12.782Z,91.16
2022-08-30T00:22:12.762Z,91.16
2022-08-30T00:23:12.828Z,91.16
2022-08-30T00:24:12.732Z,91.06
2022-08-30T00:25:12.743Z,91.06
2022-08-30T00:26:12.718Z,91.16
2022-08-30T00:27:12.711Z,91.30
2022-08-30T00:28:12.675Z,91.41
2022-08-30T00:29:12.665Z,91.51
2022-08-30T00:30:12.676Z,91.61
2022-08-30T00:31:15.543Z,91.71
2022-08-30T00:32:12.677Z,91.71
2022-08-30T00:33:12.667Z,91.71
2022-08-30T00:34:12.687Z,91.61
2022-08-30T00:35:15.627Z,91.61
2022-08-30T00:36:15.612Z,91.56
2022-08-30T00:37:12.613Z,91.41
2022-08-30T00:38:12.569Z,91.26
2022-08-30T00:39:12.537Z,91.26
2022-08-30T00:40:12.629Z,91.16
2022-08-30T00:41:13.262Z,91.16
2022-08-30T00:42:12.529Z,91.06
2022-08-30T00:43:13.951Z,90.96
2022-08-30T00:44:12.505Z,90.96
2022-08-30T00:45:12.504Z,90.90
2022-08-30T00:46:13.276Z,90.90
2022-08-30T00:47:12.453Z,90.90
2022-08-30T00:48:12.478Z,90.90
2022-08-30T00:49:12.420Z,90.90
2022-08-30T00:50:12.383Z,90.90
2022-08-30T00:51:13.825Z,90.80
2022-08-30T00:52:12.405Z,90.49
2022-08-30T00:53:12.343Z,90.53
2022-08-30T00:54:12.366Z,90.53
2022-08-30T00:55:15.314Z,90.53
2022-08-30T00:56:16.305Z,90.64
2022-08-30T00:57:12.316Z,90.64
2022-08-30T00:58:12.292Z,90.88
2022-08-30T00:59:12.323Z,91.09
2022-08-30T01:00:12.255Z,91.49
2022-08-30T01:01:13.093Z,91.69
2022-08-30T01:02:12.306Z,92.00
2022-08-30T01:03:12.218Z,92.10
2022-08-30T01:04:12.237Z,92.30
2022-08-30T01:05:12.496Z,92.45
2022-08-30T01:06:12.935Z,92.65
2022-08-30T01:07:12.169Z,92.96
2022-08-30T01:08:12.146Z,93.16
2022-08-30T01:09:12.127Z,93.37
2022-08-30T01:10:12.133Z,93.47
2022-08-30T01:11:12.850Z,93.71
2022-08-30T01:12:12.119Z,94.02
2022-08-30T01:13:12.077Z,94.32
2022-08-30T01:14:12.051Z,94.53
2022-08-30T01:15:15.067Z,94.93
2022-08-30T01:16:16.591Z,95.45
2022-08-30T01:17:12.012Z,95.65
2022-08-30T01:18:13.224Z,95.70
2022-08-30T01:19:11.984Z,95.70
2022-08-30T01:20:11.984Z,95.50
2022-08-30T01:21:12.014Z,95.40
2022-08-30T01:22:11.976Z,95.40
2022-08-30T01:23:11.928Z,95.20
2022-08-30T01:24:11.916Z,95.00
2022-08-30T01:25:11.966Z,94.89
2022-08-30T01:26:11.933Z,94.79
2022-08-30T01:27:11.886Z,94.79
2022-08-30T01:28:11.857Z,94.59
2022-08-30T01:29:11.847Z,94.59
2022-08-30T01:30:11.838Z,94.59
2022-08-30T01:31:12.619Z,94.48
2022-08-30T01:32:11.888Z,94.69
2022-08-30T01:33:11.791Z,94.79
2022-08-30T01:34:11.792Z,94.79
2022-08-30T01:35:14.779Z,94.79
2022-08-30T01:36:14.780Z,94.79
2022-08-30T01:37:11.739Z,94.79
2022-08-30T01:38:11.748Z,94.89
2022-08-30T01:39:11.711Z,94.89
2022-08-30T01:40:11.751Z,94.89
2022-08-30T01:41:11.702Z,94.93
2022-08-30T01:42:11.671Z,95.00
2022-08-30T01:43:11.691Z,94.89
2022-08-30T01:44:11.641Z,95.00
2022-08-30T01:45:11.622Z,94.89
2022-08-30T01:46:11.664Z,94.79
2022-08-30T01:47:11.603Z,94.84
2022-08-30T01:48:11.613Z,94.93
2022-08-30T01:49:11.573Z,94.93
2022-08-30T01:50:11.563Z,94.93
2022-08-30T01:51:11.580Z,95.04
2022-08-30T01:52:11.535Z,94.89
2022-08-30T01:53:15.205Z,94.79
2022-08-30T01:54:11.514Z,94.79
2022-08-30T01:55:14.496Z,94.73
2022-08-30T01:56:16.445Z,94.69
2022-08-30T01:57:11.467Z,94.59
2022-08-30T01:58:11.450Z,94.59
2022-08-30T01:59:11.517Z,94.63
2022-08-30T02:00:11.427Z,94.63
2022-08-30T02:01:11.484Z,94.63
2022-08-30T02:02:11.398Z,94.63
2022-08-30T02:03:11.379Z,94.63
2022-08-30T02:04:11.406Z,94.73
2022-08-30T02:05:11.388Z,94.73
2022-08-30T02:06:11.342Z,94.73
2022-08-30T02:07:11.359Z,94.84
2022-08-30T02:08:11.311Z,94.84
2022-08-30T02:09:11.300Z,94.79
2022-08-30T02:10:11.282Z,94.79
2022-08-30T02:11:11.287Z,94.79
2022-08-30T02:12:11.309Z,94.69
2022-08-30T02:13:11.273Z,94.59
2022-08-30T02:14:11.236Z,94.59
2022-08-30T02:15:14.213Z,94.38
2022-08-30T02:16:14.287Z,94.18
2022-08-30T02:17:11.195Z,94.08
2022-08-30T02:18:11.224Z,94.08
2022-08-30T02:19:11.169Z,93.73
2022-08-30T02:20:11.147Z,93.32
2022-08-30T02:21:11.127Z,93.22
2022-08-30T02:22:11.117Z,92.82
2022-08-30T02:23:11.106Z,92.71
2022-08-30T02:24:11.128Z,92.71
2022-08-30T02:25:11.255Z,92.61
2022-08-30T02:26:12.075Z,92.41
2022-08-30T02:27:11.059Z,92.30
2022-08-30T02:28:11.068Z,92.30
2022-08-30T02:29:11.040Z,92.21
2022-08-30T02:30:11.079Z,92.16
2022-08-30T02:31:11.061Z,91.75
2022-08-30T02:32:10.999Z,91.45
2022-08-30T02:33:10.990Z,91.55
2022-08-30T02:34:10.961Z,91.14
2022-08-30T02:35:14.020Z,91.05
2022-08-30T02:36:13.960Z,90.74
2022-08-30T02:37:10.931Z,90.53
2022-08-30T02:38:10.901Z,90.74
2022-08-30T02:39:10.892Z,90.53
2022-08-30T02:40:10.960Z,90.44
2022-08-30T02:41:10.914Z,90.23
2022-08-30T02:42:10.872Z,90.13
2022-08-30T02:43:10.844Z,90.13
2022-08-30T02:44:10.841Z,90.33
2022-08-30T02:45:10.826Z,89.83
2022-08-30T02:46:10.816Z,90.03
2022-08-30T02:47:10.809Z,89.62
2022-08-30T02:48:10.776Z,89.83
2022-08-30T02:49:32.746Z,89.62
2022-08-30T02:50:11.744Z,89.37
2022-08-30T02:51:11.361Z,89.07
2022-08-30T02:52:10.765Z,89.28
2022-08-30T02:53:10.699Z,89.28
2022-08-30T02:54:11.685Z,89.07
2022-08-30T02:55:13.678Z,88.76
2022-08-30T02:56:13.687Z,88.46
2022-08-30T02:57:19.892Z,88.56
2022-08-30T02:58:11.682Z,88.46
2022-08-30T02:59:10.628Z,88.56
2022-08-30T03:00:10.599Z,88.36
2022-08-30T03:01:10.620Z,88.46
2022-08-30T03:02:10.581Z,88.06
2022-08-30T03:03:10.620Z,88.26
2022-08-30T03:04:10.543Z,88.46
2022-08-30T03:05:10.541Z,88.46
2022-08-30T03:06:10.530Z,88.16
2022-08-30T03:07:10.504Z,88.26
2022-08-30T03:08:10.492Z,88.16
2022-08-30T03:09:10.513Z,88.26
2022-08-30T03:10:10.467Z,88.06
2022-08-30T03:11:10.463Z,87.95
2022-08-30T03:12:10.434Z,87.95
2022-08-30T03:13:10.448Z,87.95
2022-08-30T03:14:10.475Z,87.85
2022-08-30T03:15:13.402Z,87.75
2022-08-30T03:16:13.473Z,88.06
2022-08-30T03:17:12.988Z,88.06
2022-08-30T03:18:11.356Z,87.95
2022-08-30T03:19:10.350Z,87.95
2022-08-30T03:20:10.353Z,88.06
2022-08-30T03:21:10.316Z,87.95
2022-08-30T03:22:10.307Z,87.95
2022-08-30T03:23:10.294Z,87.85
2022-08-30T03:24:11.277Z,87.75
2022-08-30T03:25:10.310Z,87.85
2022-08-30T03:26:10.248Z,87.95
2022-08-30T03:27:10.239Z,88.06
2022-08-30T03:28:10.222Z,88.06
2022-08-30T03:29:10.209Z,88.36
2022-08-30T03:30:10.191Z,88.36
2022-08-30T03:31:10.220Z,88.46
2022-08-30T03:32:10.209Z,88.60
2022-08-30T03:33:10.153Z,88.60
2022-08-30T03:34:10.169Z,88.81
2022-08-30T03:35:13.152Z,89.01
2022-08-30T03:36:13.136Z,89.01
2022-08-30T03:37:10.110Z,89.11
2022-08-30T03:38:10.079Z,89.11
2022-08-30T03:39:10.072Z,88.91
2022-08-30T03:40:10.290Z,89.11
2022-08-30T03:41:10.053Z,89.31
2022-08-30T03:42:10.042Z,89.42
2022-08-30T03:43:10.015Z,89.52
2022-08-30T03:44:09.998Z,89.52
2022-08-30T03:45:09.986Z,89.42
2022-08-30T03:46:10.064Z,89.52
2022-08-30T03:47:09.966Z,89.52
2022-08-30T03:48:09.949Z,89.52
2022-08-30T03:49:09.937Z,89.31
2022-08-30T03:50:09.954Z,89.52
2022-08-30T03:51:09.909Z,89.62
2022-08-30T03:52:09.908Z,89.62
2022-08-30T03:53:09.911Z,89.52
2022-08-30T03:54:09.897Z,89.52
2022-08-30T03:55:12.859Z,89.66
2022-08-30T03:56:12.860Z,89.42
2022-08-30T03:57:11.609Z,89.46
2022-08-30T03:58:10.811Z,89.52
2022-08-30T03:59:09.800Z,89.62
2022-08-30T04:00:09.867Z,89.76
2022-08-30T04:01:09.889Z,89.66
2022-08-30T04:02:09.800Z,89.66
2022-08-30T04:03:09.815Z,89.76
2022-08-30T04:04:09.892Z,89.87
2022-08-30T04:05:09.727Z,89.87
2022-08-30T04:06:09.704Z,89.87
2022-08-30T04:07:09.684Z,89.66
2022-08-30T04:08:09.664Z,89.66
2022-08-30T04:09:09.665Z,89.66
2022-08-30T04:10:09.835Z,89.76
2022-08-30T04:11:09.635Z,89.76
2022-08-30T04:12:09.626Z,89.56
2022-08-30T04:13:09.621Z,89.66
2022-08-30T04:14:09.587Z,89.66
2022-08-30T04:15:12.616Z,89.76
2022-08-30T04:16:12.621Z,89.76
2022-08-30T04:17:09.607Z,89.66
2022-08-30T04:18:09.557Z,89.66
2022-08-30T04:19:09.532Z,89.66
2022-08-30T04:20:09.528Z,89.76
2022-08-30T04:21:13.522Z,89.87
2022-08-30T04:22:09.511Z,89.76
2022-08-30T04:23:09.639Z,89.56
2022-08-30T04:24:09.460Z,89.76
2022-08-30T04:25:15.381Z,89.76
2022-08-30T04:26:10.441Z,89.97
2022-08-30T04:27:09.420Z,89.97
2022-08-30T04:28:09.402Z,90.07
2022-08-30T04:29:09.540Z,89.97
2022-08-30T04:30:09.390Z,89.97
2022-08-30T04:31:11.597Z,89.87
2022-08-30T04:32:09.417Z,89.87
2022-08-30T04:33:09.353Z,89.87
2022-08-30T04:34:09.325Z,89.87
2022-08-30T04:35:12.336Z,89.97
2022-08-30T04:36:12.305Z,89.97
2022-08-30T04:37:09.943Z,89.97
2022-08-30T04:38:09.274Z,89.87
2022-08-30T04:39:09.256Z,89.97
2022-08-30T04:40:09.348Z,89.76
2022-08-30T04:41:09.228Z,89.56
2022-08-30T04:42:09.206Z,89.56
2022-08-30T04:43:09.234Z,89.46
2022-08-30T04:44:09.247Z,89.56
2022-08-30T04:45:10.227Z,89.66
2022-08-30T04:46:09.181Z,89.76
2022-08-30T04:47:09.147Z,89.97
2022-08-30T04:48:09.118Z,90.11
2022-08-30T04:49:09.110Z,90.11
2022-08-30T04:50:09.097Z,90.01
2022-08-30T04:51:09.129Z,90.11
2022-08-30T04:52:16.631Z,90.31
2022-08-30T04:53:09.092Z,90.42
2022-08-30T04:54:09.041Z,90.42
2022-08-30T04:55:13.949Z,90.42
2022-08-30T04:56:12.045Z,90.62
2022-08-30T04:57:09.004Z,90.72
2022-08-30T04:58:08.992Z,90.72
2022-08-30T04:59:09.094Z,90.62
2022-08-30T05:00:09.139Z,90.62
2022-08-30T05:01:09.206Z,90.72
2022-08-30T05:02:11.141Z,90.62
2022-08-30T05:03:08.977Z,90.62
2022-08-30T05:04:08.937Z,90.62
2022-08-30T05:05:09.027Z,90.62
2022-08-30T05:06:08.938Z,90.52
2022-08-30T05:07:08.877Z,90.31
2022-08-30T05:08:09.055Z,90.27
2022-08-30T05:09:08.869Z,89.97
2022-08-30T05:10:11.339Z,89.66
2022-08-30T05:11:08.820Z,89.46
2022-08-30T05:12:08.881Z,89.46
2022-08-30T05:13:08.859Z,89.05
2022-08-30T05:14:08.782Z,89.05
2022-08-30T05:15:11.754Z,89.05
2022-08-30T05:16:11.921Z,88.95
2022-08-30T05:17:09.093Z,88.95
2022-08-30T05:18:08.721Z,88.65
2022-08-30T05:19:08.708Z,88.50
2022-08-30T05:20:08.738Z,88.50
2022-08-30T05:21:08.674Z,88.40
2022-08-30T05:22:08.693Z,88.10
2022-08-30T05:23:08.692Z,87.85
2022-08-30T05:24:08.654Z,87.55
2022-08-30T05:25:08.625Z,87.14
2022-08-30T05:26:08.734Z,87.00
2022-08-30T05:27:08.621Z,86.59
2022-08-30T05:28:08.586Z,86.39
2022-08-30T05:29:08.720Z,86.15
2022-08-30T05:30:08.557Z,85.24
2022-08-30T05:31:13.871Z,84.89
2022-08-30T05:32:09.547Z,84.34
2022-08-30T05:33:08.517Z,83.94
2022-08-30T05:34:08.501Z,83.39
2022-08-30T05:35:11.495Z,82.98
2022-08-30T05:36:11.549Z,82.89
2022-08-30T05:37:08.489Z,82.58
2022-08-30T05:38:08.584Z,81.99
2022-08-30T05:39:09.089Z,80.77
2022-08-30T05:40:11.188Z,78.20
2022-08-30T05:41:10.557Z,77.73
2022-08-30T05:42:08.446Z,78.14
2022-08-30T05:43:08.538Z,76.35
2022-08-30T05:44:08.500Z,74.87
2022-08-30T05:45:08.358Z,73.35
2022-08-30T05:46:08.497Z,71.56
2022-08-30T05:47:08.382Z,70.66
2022-08-30T05:48:08.343Z,70.50
2022-08-30T05:49:08.295Z,71.03
2022-08-30T05:50:08.395Z,71.47
2022-08-30T05:51:08.334Z,72.17
2022-08-30T05:52:08.262Z,73.25
2022-08-30T05:53:08.375Z,74.49
2022-08-30T05:54:08.232Z,74.84
2022-08-30T05:55:11.236Z,75.57
2022-08-30T05:56:11.245Z,76.39
2022-08-30T05:57:08.269Z,77.03
2022-08-30T05:58:08.167Z,77.53
2022-08-30T05:59:08.200Z,78.17
2022-08-30T06:00:08.138Z,78.17
2022-08-30T06:01:08.141Z,78.38
2022-08-30T06:02:08.239Z,78.88
2022-08-30T06:03:08.173Z,79.08
2022-08-30T06:04:08.213Z,79.02
2022-08-30T06:05:08.210Z,79.33
2022-08-30T06:06:08.100Z,79.22
2022-08-30T06:07:10.534Z,79.19
2022-08-30T06:08:09.061Z,79.02
2022-08-30T06:09:08.019Z,79.33
2022-08-30T06:10:08.032Z,79.63
2022-08-30T06:11:08.033Z,79.83
2022-08-30T06:12:08.107Z,79.87
2022-08-30T06:13:07.970Z,80.18
2022-08-30T06:14:07.999Z,80.58
2022-08-30T06:15:10.985Z,80.88
2022-08-30T06:16:11.120Z,81.09
2022-08-30T06:17:07.926Z,80.88
2022-08-30T06:18:07.971Z,80.78
2022-08-30T06:19:07.908Z,80.98
2022-08-30T06:20:07.859Z,81.23
2022-08-30T06:21:08.901Z,81.63
2022-08-30T06:22:07.878Z,81.73
2022-08-30T06:23:07.835Z,81.83
2022-08-30T06:24:07.837Z,82.03
2022-08-30T06:25:07.885Z,82.14
2022-08-30T06:26:07.778Z,81.73
2022-08-30T06:27:07.799Z,81.93
2022-08-30T06:28:07.762Z,81.93
2022-08-30T06:29:07.751Z,82.17
2022-08-30T06:30:07.839Z,82.54
2022-08-30T06:31:07.768Z,82.58
2022-08-30T06:32:07.740Z,82.78
2022-08-30T06:33:07.692Z,82.98
2022-08-30T06:34:07.684Z,82.89
2022-08-30T06:35:10.663Z,82.98
2022-08-30T06:36:10.677Z,82.89
2022-08-30T06:37:07.647Z,83.09
2022-08-30T06:38:07.805Z,82.75
2022-08-30T06:39:07.626Z,82.95
2022-08-30T06:40:07.665Z,83.04
2022-08-30T06:41:07.588Z,82.75
2022-08-30T06:42:07.576Z,82.84
2022-08-30T06:43:07.565Z,83.15
2022-08-30T06:44:07.576Z,83.25
2022-08-30T06:45:11.064Z,83.15
2022-08-30T06:46:07.577Z,83.04
2022-08-30T06:47:07.507Z,82.95
2022-08-30T06:48:07.548Z,82.95
2022-08-30T06:49:07.488Z,82.70
2022-08-30T06:50:07.470Z,82.70
2022-08-30T06:51:07.457Z,82.60
2022-08-30T06:52:07.440Z,82.60
2022-08-30T06:53:07.428Z,82.30
2022-08-30T06:54:09.262Z,82.20
2022-08-30T06:55:10.402Z,82.20
2022-08-30T06:56:10.402Z,82.50
2022-08-30T06:57:07.381Z,82.90
2022-08-30T06:58:07.373Z,82.60
2022-08-30T06:59:07.408Z,82.70
2022-08-30T07:00:07.334Z,82.60
2022-08-30T07:01:07.313Z,82.95
2022-08-30T07:02:07.348Z,83.35
2022-08-30T07:03:07.348Z,83.31
2022-08-30T07:04:07.275Z,83.11
2022-08-30T07:05:07.445Z,83.01
2022-08-30T07:06:07.262Z,83.01
2022-08-30T07:07:07.244Z,83.01
2022-08-30T07:08:07.236Z,83.21
2022-08-30T07:09:07.301Z,83.01
2022-08-30T07:10:07.208Z,82.81
2022-08-30T07:11:07.207Z,82.81
2022-08-30T07:12:07.177Z,83.01
2022-08-30T07:13:07.158Z,83.01
2022-08-30T07:14:07.148Z,83.01
2022-08-30T07:15:10.135Z,83.21
2022-08-30T07:16:10.230Z,83.41
2022-08-30T07:17:07.099Z,83.51
2022-08-30T07:18:07.092Z,83.21
2022-08-30T07:19:07.082Z,83.21
2022-08-30T07:20:07.070Z,83.51
2022-08-30T07:21:07.102Z,83.01
2022-08-30T07:22:07.040Z,83.17
2022-08-30T07:23:07.034Z,82.97
2022-08-30T07:24:08.834Z,82.76
2022-08-30T07:25:07.013Z,83.07
2022-08-30T07:26:07.004Z,83.17
2022-08-30T07:27:07.013Z,83.27
2022-08-30T07:28:06.964Z,82.87
2022-08-30T07:29:06.953Z,82.97
2022-08-30T07:30:06.934Z,82.83
2022-08-30T07:32:07.119Z,82.42
2022-08-30T07:33:06.911Z,82.42
2022-08-30T07:34:06.905Z,82.22
2022-08-30T07:35:09.886Z,82.32
2022-08-30T07:36:09.883Z,82.42
2022-08-30T07:37:06.844Z,82.62
2022-08-30T07:38:06.871Z,81.92
2022-08-30T07:39:06.822Z,82.32
2022-08-30T07:40:06.864Z,82.18
2022-08-30T07:41:06.799Z,81.71
2022-08-30T07:42:06.855Z,82.02
2022-08-30T07:43:06.801Z,82.32
2022-08-30T07:44:06.842Z,82.53
2022-08-30T07:45:06.777Z,82.53
2022-08-30T07:46:06.773Z,82.73
2022-08-30T07:47:06.713Z,83.03
2022-08-30T07:48:06.720Z,82.59
2022-08-30T07:49:11.135Z,81.92
2022-08-30T07:50:06.681Z,81.92
2022-08-30T07:51:06.663Z,82.42
2022-08-30T07:52:06.672Z,82.53
2022-08-30T07:53:09.286Z,82.42
2022-08-30T07:54:06.636Z,82.53
2022-08-30T07:55:09.636Z,82.56
2022-08-30T07:56:09.616Z,82.87
2022-08-30T07:57:06.608Z,83.27
2022-08-30T07:58:06.598Z,83.37
2022-08-30T07:59:06.600Z,83.37
2022-08-30T08:00:06.553Z,83.37
2022-08-30T08:01:06.538Z,83.68
2022-08-30T08:02:06.549Z,83.88
2022-08-30T08:03:06.531Z,83.88
2022-08-30T08:04:06.527Z,84.25
2022-08-30T08:05:06.533Z,83.33
2022-08-30T08:06:06.470Z,83.13
2022-08-30T08:07:06.478Z,83.13
2022-08-30T08:08:06.450Z,83.44
2022-08-30T08:09:06.428Z,83.74
2022-08-30T08:10:06.429Z,83.44
2022-08-30T08:11:06.548Z,83.54
2022-08-30T08:12:06.400Z,83.44
2022-08-30T08:13:06.390Z,83.33
2022-08-30T08:14:06.468Z,83.44
2022-08-30T08:15:09.360Z,83.33
2022-08-30T08:16:09.418Z,83.54
2022-08-30T08:17:06.364Z,83.74
2022-08-30T08:18:06.407Z,83.64
2022-08-30T08:19:06.311Z,83.64
2022-08-30T08:20:06.352Z,83.64
2022-08-30T08:21:06.274Z,83.74
2022-08-30T08:22:20.430Z,83.44
2022-08-30T08:23:07.248Z,83.64
2022-08-30T08:24:06.254Z,83.84
2022-08-30T08:25:06.304Z,84.14
2022-08-30T08:26:06.584Z,83.54
2022-08-30T08:27:06.196Z,83.84
2022-08-30T08:28:06.226Z,83.54
2022-08-30T08:29:06.167Z,83.60
2022-08-30T08:30:06.157Z,83.60
2022-08-30T08:31:06.173Z,83.80
2022-08-30T08:32:06.168Z,83.50
2022-08-30T08:33:06.309Z,83.50
2022-08-30T08:34:06.504Z,82.89
2022-08-30T08:35:09.369Z,82.89
2022-08-30T08:36:09.626Z,82.75
2022-08-30T08:37:06.277Z,82.85
2022-08-30T08:38:06.232Z,82.91
2022-08-30T08:39:06.178Z,81.90
2022-08-30T08:40:06.228Z,81.50
2022-08-30T08:41:06.127Z,81.80
2022-08-30T08:42:06.046Z,81.20
2022-08-30T08:43:06.010Z,81.16
2022-08-30T08:44:05.985Z,81.05
2022-08-30T08:45:10.724Z,80.51
2022-08-30T08:46:07.011Z,80.31
2022-08-30T08:47:06.001Z,80.01
2022-08-30T08:48:06.106Z,80.18
2022-08-30T08:49:05.952Z,79.93
2022-08-30T08:50:05.918Z,79.03
2022-08-30T08:51:05.917Z,78.83
2022-08-30T08:52:05.979Z,78.42
2022-08-30T08:53:06.066Z,78.52
2022-08-30T08:54:05.867Z,78.08
2022-08-30T08:55:08.859Z,78.28
2022-08-30T08:56:08.859Z,77.64
2022-08-30T08:57:05.809Z,77.84
2022-08-30T08:58:05.840Z,77.64
2022-08-30T08:59:05.799Z,77.50
2022-08-30T09:00:05.771Z,76.90
2022-08-30T09:01:06.050Z,76.80
2022-08-30T09:02:05.732Z,77.50
2022-08-30T09:03:05.760Z,76.46
2022-08-30T09:04:05.701Z,75.96
2022-08-30T09:05:05.827Z,76.03
2022-08-30T09:06:05.849Z,75.72
2022-08-30T09:07:05.667Z,76.12
2022-08-30T09:08:09.666Z,76.03
2022-08-30T09:09:05.634Z,75.92
2022-08-30T09:10:05.688Z,76.23
2022-08-30T09:11:05.596Z,75.72
2022-08-30T09:12:05.610Z,75.72
2022-08-30T09:13:05.578Z,75.79
2022-08-30T09:14:05.588Z,75.55
2022-08-30T09:15:08.547Z,75.25
2022-08-30T09:16:08.923Z,75.11
2022-08-30T09:17:06.520Z,74.81
2022-08-30T09:18:05.581Z,75.11
2022-08-30T09:19:06.569Z,74.11
2022-08-30T09:20:05.656Z,74.51
2022-08-30T09:21:05.469Z,74.41
2022-08-30T09:22:06.502Z,74.41
2022-08-30T09:23:05.464Z,75.18
2022-08-30T09:24:05.480Z,73.87
2022-08-30T09:25:05.587Z,74.27
2022-08-30T09:26:05.415Z,73.77
2022-08-30T09:27:06.155Z,73.77
2022-08-30T09:28:05.396Z,74.34
2022-08-30T09:29:05.889Z,73.97
2022-08-30T09:30:05.405Z,74.37
2022-08-30T09:31:07.711Z,74.98
2022-08-30T09:32:24.830Z,74.37
2022-08-30T09:33:06.356Z,74.81
2022-08-30T09:34:05.330Z,75.31
2022-08-30T09:35:08.337Z,75.88
2022-08-30T09:36:08.317Z,74.18
2022-08-30T09:37:06.121Z,73.84
2022-08-30T09:38:05.271Z,73.74
2022-08-30T09:39:05.236Z,74.21
2022-08-30T09:40:05.241Z,75.05
2022-08-30T09:41:05.272Z,75.85
2022-08-30T09:42:06.679Z,75.62
2022-08-30T09:43:05.204Z,75.42
2022-08-30T09:44:05.213Z,76.52
2022-08-30T09:45:05.185Z,75.82
2022-08-30T09:46:05.236Z,74.77
2022-08-30T09:47:05.884Z,74.81
2022-08-30T09:48:05.136Z,75.11
2022-08-30T09:49:05.117Z,74.98
2022-08-30T09:50:05.079Z,74.48
2022-08-30T09:51:05.098Z,73.94
2022-08-30T09:52:05.816Z,74.24
2022-08-30T09:53:05.077Z,74.04
2022-08-30T09:54:17.386Z,73.84
2022-08-30T09:55:09.016Z,73.60
2022-08-30T09:56:08.104Z,73.27
2022-08-30T09:57:11.860Z,72.43
2022-08-30T09:58:05.988Z,71.93
2022-08-30T09:59:04.980Z,72.06
2022-08-30T10:00:04.955Z,72.77
2022-08-30T10:01:05.008Z,72.86
2022-08-30T10:02:05.785Z,72.86
2022-08-30T10:03:04.965Z,73.16
2022-08-30T10:04:05.004Z,72.33
2022-08-30T10:05:04.931Z,71.63
2022-08-30T10:06:04.916Z,71.43
2022-08-30T10:07:05.596Z,70.89
2022-08-30T10:08:04.860Z,70.66
2022-08-30T10:09:04.816Z,71.09
2022-08-30T10:10:17.526Z,71.36
2022-08-30T10:11:04.819Z,72.03
2022-08-30T10:12:05.525Z,72.36
2022-08-30T10:13:04.788Z,72.77
2022-08-30T10:14:04.788Z,72.97
2022-08-30T10:15:07.748Z,73.07
2022-08-30T10:16:07.758Z,73.16
2022-08-30T10:17:05.469Z,73.40
2022-08-30T10:18:04.745Z,74.01
2022-08-30T10:19:06.447Z,74.30
2022-08-30T10:20:04.686Z,73.60
2022-08-30T10:21:04.652Z,73.80
2022-08-30T10:22:04.663Z,73.57
2022-08-30T10:23:04.672Z,72.97
2022-08-30T10:24:04.630Z,73.07
2022-08-30T10:25:04.714Z,73.27
2022-08-30T10:26:04.633Z,73.67
2022-08-30T10:27:05.232Z,73.80
2022-08-30T10:28:04.614Z,74.54
2022-08-30T10:29:04.717Z,75.04
2022-08-30T10:30:04.545Z,75.64
2022-08-30T10:31:04.551Z,74.98
2022-08-30T10:32:04.517Z,75.18
2022-08-30T10:33:04.529Z,75.18
2022-08-30T10:34:04.488Z,75.84
2022-08-30T10:35:07.465Z,75.01
2022-08-30T10:36:10.344Z,74.20
2022-08-30T10:37:04.481Z,74.01
2022-08-30T10:38:04.437Z,74.54
2022-08-30T10:39:04.422Z,74.64
2022-08-30T10:40:04.416Z,74.94
2022-08-30T10:41:04.409Z,74.90
2022-08-30T10:42:04.370Z,74.01
2022-08-30T10:43:04.382Z,73.36
2022-08-30T10:44:04.366Z,72.06
2022-08-30T10:45:04.352Z,72.16
2022-08-30T10:46:04.414Z,72.09
2022-08-30T10:47:04.303Z,72.50
2022-08-30T10:48:04.293Z,72.09
2022-08-30T10:49:04.287Z,72.20
2022-08-30T10:50:04.273Z,72.70
2022-08-30T10:51:04.245Z,72.60
2022-08-30T10:52:04.295Z,72.20
2022-08-30T10:53:12.903Z,71.06
2022-08-30T10:54:04.205Z,71.06
2022-08-30T10:55:07.194Z,71.16
2022-08-30T10:56:07.200Z,71.53
2022-08-30T10:57:04.222Z,70.39
2022-08-30T10:58:04.157Z,69.46
2022-08-30T10:59:04.136Z,68.32
2022-08-30T11:00:06.137Z,68.29
2022-08-30T11:01:04.150Z,67.86
2022-08-30T11:02:04.097Z,66.63
2022-08-30T11:03:04.249Z,66.36
2022-08-30T11:04:04.076Z,65.60
2022-08-30T11:05:04.067Z,66.27
2022-08-30T11:06:04.041Z,64.57
2022-08-30T11:07:05.908Z,64.30
2022-08-30T11:08:05.041Z,64.53
2022-08-30T11:09:04.010Z,65.46
2022-08-30T11:10:03.992Z,66.36
2022-08-30T11:11:03.983Z,67.13
2022-08-30T11:12:03.964Z,67.52
2022-08-30T11:13:03.984Z,67.25
2022-08-30T11:14:05.796Z,66.72
2022-08-30T11:15:06.923Z,65.69
2022-08-30T11:16:06.924Z,65.53
2022-08-30T11:17:03.902Z,64.53
2022-08-30T11:18:03.875Z,64.93
2022-08-30T11:19:03.896Z,64.60
2022-08-30T11:20:03.857Z,64.47
2022-08-30T11:21:03.837Z,64.17
2022-08-30T11:22:03.834Z,64.70
2022-08-30T11:23:03.820Z,64.76
2022-08-30T11:24:06.583Z,65.95
2022-08-30T11:25:04.809Z,67.69
2022-08-30T11:26:04.770Z,68.89
2022-08-30T11:27:03.762Z,68.59
2022-08-30T11:28:03.751Z,68.89
2022-08-30T11:29:03.769Z,69.29
2022-08-30T11:30:03.781Z,69.19
2022-08-30T11:31:03.739Z,69.09
2022-08-30T11:32:03.704Z,69.29
2022-08-30T11:33:08.914Z,69.89
2022-08-30T11:34:04.663Z,70.09
2022-08-30T11:35:06.674Z,70.29
2022-08-30T11:36:06.654Z,70.39
2022-08-30T11:37:03.625Z,70.19
2022-08-30T11:38:04.605Z,70.39
2022-08-30T11:39:03.597Z,70.19
2022-08-30T11:40:04.208Z,71.12
2022-08-30T11:41:03.619Z,70.89
2022-08-30T11:42:03.559Z,70.56
2022-08-30T11:43:03.541Z,70.26
2022-08-30T11:44:03.528Z,69.86
2022-08-30T11:45:03.516Z,69.06
2022-08-30T11:46:03.509Z,69.86
2022-08-30T11:47:05.031Z,69.26
2022-08-30T11:48:04.590Z,68.96
2022-08-30T11:49:03.466Z,69.46
2022-08-30T11:50:09.840Z,69.46
2022-08-30T11:51:04.705Z,69.26
2022-08-30T11:52:27.016Z,68.93
2022-08-30T11:53:04.580Z,68.32
2022-08-30T11:54:03.505Z,68.69
2022-08-30T11:55:06.897Z,67.29
2022-08-30T11:56:06.571Z,66.26
2022-08-30T11:57:03.441Z,65.83
2022-08-30T11:58:03.446Z,67.13
2022-08-30T11:59:03.436Z,67.02
2022-08-30T12:00:03.344Z,67.02
2022-08-30T12:01:03.327Z,67.22
2022-08-30T12:02:03.482Z,67.55
2022-08-30T12:03:03.482Z,67.76
2022-08-30T12:04:03.304Z,67.96
2022-08-30T12:05:03.288Z,67.86
2022-08-30T12:06:03.284Z,68.19
2022-08-30T12:07:03.264Z,68.59
2022-08-30T12:08:03.243Z,69.69
2022-08-30T12:09:03.350Z,69.23
2022-08-30T12:10:04.251Z,68.73
2022-08-30T12:11:03.200Z,67.82
2022-08-30T12:12:03.181Z,67.82
2022-08-30T12:13:03.163Z,68.46
2022-08-30T12:14:03.151Z,68.26
2022-08-30T12:15:06.166Z,68.99
2022-08-30T12:16:06.215Z,69.82
2022-08-30T12:17:03.205Z,70.03
2022-08-30T12:18:03.085Z,69.09
2022-08-30T12:19:03.154Z,68.55
2022-08-30T12:20:03.086Z,68.32
2022-08-30T12:21:03.152Z,68.23
2022-08-30T12:22:03.037Z,68.13
2022-08-30T12:23:03.068Z,67.59
2022-08-30T12:24:03.807Z,67.49
2022-08-30T12:25:03.005Z,67.46
2022-08-30T12:26:02.983Z,65.03
2022-08-30T12:27:02.976Z,63.43
2022-08-30T12:28:03.018Z,63.26
2022-08-30T12:29:03.008Z,63.86
2022-08-30T12:30:03.031Z,64.46
2022-08-30T12:31:03.061Z,64.96
2022-08-30T12:32:03.443Z,64.96
2022-08-30T12:33:02.952Z,64.86
2022-08-30T12:34:02.933Z,65.16
2022-08-30T12:35:05.929Z,65.03
2022-08-30T12:36:06.026Z,64.37
2022-08-30T12:37:03.056Z,64.27
2022-08-30T12:38:02.954Z,63.20
2022-08-30T12:39:05.571Z,63.70
2022-08-30T12:40:02.968Z,64.23
2022-08-30T12:41:02.786Z,65.23
2022-08-30T12:42:02.756Z,65.13
2022-08-30T12:43:02.757Z,64.23
2022-08-30T12:44:02.767Z,64.53
2022-08-30T12:45:02.718Z,64.63
2022-08-30T12:46:07.415Z,63.87
2022-08-30T12:47:03.689Z,64.27
2022-08-30T12:48:02.669Z,62.87
2022-08-30T12:49:02.697Z,63.17
2022-08-30T12:50:02.770Z,63.70
2022-08-30T12:51:02.620Z,64.03
2022-08-30T12:52:02.634Z,64.03
2022-08-30T12:53:02.780Z,64.13